sensor_id;sensor_type;location;lat;lon;timestamp;temperature;humidity
20915;DHT22;10617;52.032;5.298;2024-03-23T00:51:18;8.30;99.90
20915;DHT22;10617;52.032;5.298;2024-03-23T00:55:19;8.30;99.90
20915;DHT22;10617;52.032;5.298;2024-03-23T00:59:20;8.30;99.90
20915;DHT22;10617;52.032;5.298;2024-03-23T01:03:22;8.30;99.90
20915;DHT22;10617;52.032;5.298;2024-03-23T01:07:23;8.40;99.90
20915;DHT22;10617;52.032;5.298;2024-03-23T01:11:24;8.40;99.90
20915;DHT22;10617;52.032;5.298;2024-03-23T01:15:25;8.40;99.90
20915;DHT22;10617;52.032;5.298;2024-03-23T01:19:26;8.40;99.90
20915;DHT22;10617;52.032;5.298;2024-03-23T01:23:26;8.40;99.90
20915;DHT22;10617;52.032;5.298;2024-03-23T01:27:27;8.40;99.90
20915;DHT22;10617;52.032;5.298;2024-03-23T01:31:28;8.40;99.90
20915;DHT22;10617;52.032;5.298;2024-03-23T01:35:29;8.40;99.90
20915;DHT22;10617;52.032;5.298;2024-03-23T01:39:29;8.30;99.90
20915;DHT22;10617;52.032;5.298;2024-03-23T01:43:30;8.30;99.90
20915;DHT22;10617;52.032;5.298;2024-03-23T01:47:31;8.30;99.90
20915;DHT22;10617;52.032;5.298;2024-03-23T01:51:32;8.20;99.90
20915;DHT22;10617;52.032;5.298;2024-03-23T01:55:33;8.10;99.90
20915;DHT22;10617;52.032;5.298;2024-03-23T01:59:34;8.10;99.90
20915;DHT22;10617;52.032;5.298;2024-03-23T02:03:35;8.00;99.90
20915;DHT22;10617;52.032;5.298;2024-03-23T02:07:36;7.90;99.90
20915;DHT22;10617;52.032;5.298;2024-03-23T02:11:37;7.80;99.90
20915;DHT22;10617;52.032;5.298;2024-03-23T02:15:39;7.70;99.90
20915;DHT22;10617;52.032;5.298;2024-03-23T02:19:40;7.60;99.90
20915;DHT22;10617;52.032;5.298;2024-03-23T02:23:41;7.50;99.90
20915;DHT22;10617;52.032;5.298;2024-03-23T02:27:41;7.40;99.90
20915;DHT22;10617;52.032;5.298;2024-03-23T02:31:42;7.30;99.90
20915;DHT22;10617;52.032;5.298;2024-03-23T02:35:43;7.20;99.90
20915;DHT22;10617;52.032;5.298;2024-03-23T02:39:44;7.10;99.90
20915;DHT22;10617;52.032;5.298;2024-03-23T02:43:45;7.10;99.90
20915;DHT22;10617;52.032;5.298;2024-03-23T02:47:46;7.10;99.90
20915;DHT22;10617;52.032;5.298;2024-03-23T02:51:47;7.00;99.90
20915;DHT22;10617;52.032;5.298;2024-03-23T02:55:49;6.90;99.90
20915;DHT22;10617;52.032;5.298;2024-03-23T02:59:50;6.90;99.90
20915;DHT22;10617;52.032;5.298;2024-03-23T03:03:51;6.80;99.90
20915;DHT22;10617;52.032;5.298;2024-03-23T03:07:51;6.70;99.90
20915;DHT22;10617;52.032;5.298;2024-03-23T03:11:52;6.70;99.90
20915;DHT22;10617;52.032;5.298;2024-03-23T03:15:53;6.60;99.90
20915;DHT22;10617;52.032;5.298;2024-03-23T03:19:54;6.60;99.90
20915;DHT22;10617;52.032;5.298;2024-03-23T03:23:56;6.50;99.90
20915;DHT22;10617;52.032;5.298;2024-03-23T03:27:57;6.50;99.90
20915;DHT22;10617;52.032;5.298;2024-03-23T03:31:58;6.40;99.90
20915;DHT22;10617;52.032;5.298;2024-03-23T03:35:59;6.40;99.90
20915;DHT22;10617;52.032;5.298;2024-03-23T03:39:59;6.40;99.90
20915;DHT22;10617;52.032;5.298;2024-03-23T03:44:00;6.30;99.90
20915;DHT22;10617;52.032;5.298;2024-03-23T03:48:02;6.30;99.90
20915;DHT22;10617;52.032;5.298;2024-03-23T03:52:03;6.20;99.90
20915;DHT22;10617;52.032;5.298;2024-03-23T03:56:04;6.20;99.90
20915;DHT22;10617;52.032;5.298;2024-03-23T04:00:05;6.10;99.90
20915;DHT22;10617;52.032;5.298;2024-03-23T04:04:06;6.10;99.90
20915;DHT22;10617;52.032;5.298;2024-03-23T04:08:07;6.00;99.90
20915;DHT22;10617;52.032;5.298;2024-03-23T04:12:08;5.90;99.90
20915;DHT22;10617;52.032;5.298;2024-03-23T04:16:09;5.90;99.90
20915;DHT22;10617;52.032;5.298;2024-03-23T04:20:10;5.80;99.90
20915;DHT22;10617;52.032;5.298;2024-03-23T04:24:12;5.70;99.90
20915;DHT22;10617;52.032;5.298;2024-03-23T04:28:12;5.60;99.90
20915;DHT22;10617;52.032;5.298;2024-03-23T04:32:13;5.60;99.90
20915;DHT22;10617;52.032;5.298;2024-03-23T04:36:14;5.50;99.90
20915;DHT22;10617;52.032;5.298;2024-03-23T04:40:15;5.40;99.90
20915;DHT22;10617;52.032;5.298;2024-03-23T04:44:16;5.30;99.90
20915;DHT22;10617;52.032;5.298;2024-03-23T04:48:19;5.30;99.90
20915;DHT22;10617;52.032;5.298;2024-03-23T04:52:21;5.30;99.90
20915;DHT22;10617;52.032;5.298;2024-03-23T04:56:22;5.30;99.90
20915;DHT22;10617;52.032;5.298;2024-03-23T05:00:23;5.30;99.90
20915;DHT22;10617;52.032;5.298;2024-03-23T05:04:24;5.30;99.90
20915;DHT22;10617;52.032;5.298;2024-03-23T05:08:26;5.30;99.90
20915;DHT22;10617;52.032;5.298;2024-03-23T05:12:27;5.20;99.90
20915;DHT22;10617;52.032;5.298;2024-03-23T05:16:28;5.30;99.90
20915;DHT22;10617;52.032;5.298;2024-03-23T05:20:29;5.20;99.90
20915;DHT22;10617;52.032;5.298;2024-03-23T05:24:30;5.20;99.90
20915;DHT22;10617;52.032;5.298;2024-03-23T05:28:31;5.20;99.90
20915;DHT22;10617;52.032;5.298;2024-03-23T05:32:32;5.20;99.90
20915;DHT22;10617;52.032;5.298;2024-03-23T05:36:33;5.20;99.90
20915;DHT22;10617;52.032;5.298;2024-03-23T05:40:34;5.20;99.90
20915;DHT22;10617;52.032;5.298;2024-03-23T05:44:38;5.20;99.90
20915;DHT22;10617;52.032;5.298;2024-03-23T05:48:39;5.20;99.90
20915;DHT22;10617;52.032;5.298;2024-03-23T05:52:40;5.20;99.90
20915;DHT22;10617;52.032;5.298;2024-03-23T05:56:41;5.30;99.90
20915;DHT22;10617;52.032;5.298;2024-03-23T06:00:43;5.40;99.90
20915;DHT22;10617;52.032;5.298;2024-03-23T06:04:45;5.40;99.90
20915;DHT22;10617;52.032;5.298;2024-03-23T06:08:46;5.40;99.90
20915;DHT22;10617;52.032;5.298;2024-03-23T06:12:47;5.50;99.90
20915;DHT22;10617;52.032;5.298;2024-03-23T06:16:49;5.50;99.90
20915;DHT22;10617;52.032;5.298;2024-03-23T06:20:50;5.60;99.90
20915;DHT22;10617;52.032;5.298;2024-03-23T06:24:51;5.70;99.90
20915;DHT22;10617;52.032;5.298;2024-03-23T06:28:52;5.70;99.90
20915;DHT22;10617;52.032;5.298;2024-03-23T06:32:54;5.70;99.90
20915;DHT22;10617;52.032;5.298;2024-03-23T06:36:54;5.90;99.90
20915;DHT22;10617;52.032;5.298;2024-03-23T06:40:56;6.00;99.90
20915;DHT22;10617;52.032;5.298;2024-03-23T06:44:56;6.20;99.90
20915;DHT22;10617;52.032;5.298;2024-03-23T06:48:57;6.30;99.90
20915;DHT22;10617;52.032;5.298;2024-03-23T06:52:58;6.40;99.90
20915;DHT22;10617;52.032;5.298;2024-03-23T06:56:59;6.60;99.90
20915;DHT22;10617;52.032;5.298;2024-03-23T07:01:00;6.60;99.90
20915;DHT22;10617;52.032;5.298;2024-03-23T07:05:01;6.70;99.90
20915;DHT22;10617;52.032;5.298;2024-03-23T07:09:02;6.80;99.90
20915;DHT22;10617;52.032;5.298;2024-03-23T07:13:03;6.90;99.90
20915;DHT22;10617;52.032;5.298;2024-03-23T07:17:04;7.00;99.90
20915;DHT22;10617;52.032;5.298;2024-03-23T07:21:05;7.10;99.90
20915;DHT22;10617;52.032;5.298;2024-03-23T07:25:07;7.10;99.90
20915;DHT22;10617;52.032;5.298;2024-03-23T07:29:08;7.20;99.90
20915;DHT22;10617;52.032;5.298;2024-03-23T07:33:10;7.20;99.90
20915;DHT22;10617;52.032;5.298;2024-03-23T07:37:11;7.30;99.90
20915;DHT22;10617;52.032;5.298;2024-03-23T07:41:13;7.50;99.90
20915;DHT22;10617;52.032;5.298;2024-03-23T07:45:15;7.60;99.90
20915;DHT22;10617;52.032;5.298;2024-03-23T07:49:16;7.70;99.90
20915;DHT22;10617;52.032;5.298;2024-03-23T07:53:17;7.80;99.90
20915;DHT22;10617;52.032;5.298;2024-03-23T07:57:18;8.00;99.90
20915;DHT22;10617;52.032;5.298;2024-03-23T08:01:19;8.00;99.90
20915;DHT22;10617;52.032;5.298;2024-03-23T08:05:19;8.10;99.90
20915;DHT22;10617;52.032;5.298;2024-03-23T08:09:20;8.10;99.90
20915;DHT22;10617;52.032;5.298;2024-03-23T08:13:21;8.10;99.90
20915;DHT22;10617;52.032;5.298;2024-03-23T08:17:22;8.00;99.90
20915;DHT22;10617;52.032;5.298;2024-03-23T08:21:23;8.00;99.90
20915;DHT22;10617;52.032;5.298;2024-03-23T08:25:26;7.90;99.90
20915;DHT22;10617;52.032;5.298;2024-03-23T08:29:27;7.70;99.90
20915;DHT22;10617;52.032;5.298;2024-03-23T08:33:28;7.60;99.90
20915;DHT22;10617;52.032;5.298;2024-03-23T08:37:28;7.70;99.90
20915;DHT22;10617;52.032;5.298;2024-03-23T08:41:29;7.70;99.90
20915;DHT22;10617;52.032;5.298;2024-03-23T08:45:30;7.80;99.90
20915;DHT22;10617;52.032;5.298;2024-03-23T08:49:31;7.80;99.90
20915;DHT22;10617;52.032;5.298;2024-03-23T08:53:32;7.90;99.90
20915;DHT22;10617;52.032;5.298;2024-03-23T08:57:33;8.10;99.90
20915;DHT22;10617;52.032;5.298;2024-03-23T09:01:34;8.40;99.90
20915;DHT22;10617;52.032;5.298;2024-03-23T09:05:38;8.80;99.90
20915;DHT22;10617;52.032;5.298;2024-03-23T09:09:39;9.10;99.90
20915;DHT22;10617;52.032;5.298;2024-03-23T09:13:40;9.30;99.90
20915;DHT22;10617;52.032;5.298;2024-03-23T09:17:42;9.50;99.90
20915;DHT22;10617;52.032;5.298;2024-03-23T09:21:43;9.50;99.90
20915;DHT22;10617;52.032;5.298;2024-03-23T09:25:44;9.30;99.90
20915;DHT22;10617;52.032;5.298;2024-03-23T09:29:45;8.90;99.90
20915;DHT22;10617;52.032;5.298;2024-03-23T09:33:46;8.40;99.90
20915;DHT22;10617;52.032;5.298;2024-03-23T09:37:46;8.10;99.90
20915;DHT22;10617;52.032;5.298;2024-03-23T09:41:47;8.20;99.90
20915;DHT22;10617;52.032;5.298;2024-03-23T09:45:48;8.50;99.90
20915;DHT22;10617;52.032;5.298;2024-03-23T09:49:49;8.70;99.90
20915;DHT22;10617;52.032;5.298;2024-03-23T09:53:50;8.70;99.90
20915;DHT22;10617;52.032;5.298;2024-03-23T09:57:53;8.60;99.90
20915;DHT22;10617;52.032;5.298;2024-03-23T10:01:53;8.60;99.90
20915;DHT22;10617;52.032;5.298;2024-03-23T10:06:01;8.70;99.90
20915;DHT22;10617;52.032;5.298;2024-03-23T10:10:10;8.90;99.90
20915;DHT22;10617;52.032;5.298;2024-03-23T10:14:11;9.20;99.90
20915;DHT22;10617;52.032;5.298;2024-03-23T10:18:18;9.20;99.90
20915;DHT22;10617;52.032;5.298;2024-03-23T10:22:25;9.00;99.90
20915;DHT22;10617;52.032;5.298;2024-03-23T10:26:26;9.10;99.90
20915;DHT22;10617;52.032;5.298;2024-03-23T10:30:28;9.10;99.90
20915;DHT22;10617;52.032;5.298;2024-03-23T10:34:28;9.40;99.90
20915;DHT22;10617;52.032;5.298;2024-03-23T10:38:29;9.90;99.90
20915;DHT22;10617;52.032;5.298;2024-03-23T10:42:30;10.20;99.90
20915;DHT22;10617;52.032;5.298;2024-03-23T10:46:31;10.20;99.90
20915;DHT22;10617;52.032;5.298;2024-03-23T10:50:32;9.90;99.90
20915;DHT22;10617;52.032;5.298;2024-03-23T10:54:33;9.10;99.90
20915;DHT22;10617;52.032;5.298;2024-03-23T11:02:40;8.90;99.90
20915;DHT22;10617;52.032;5.298;2024-03-23T11:11:44;9.00;99.90
20915;DHT22;10617;52.032;5.298;2024-03-23T11:15:45;8.50;99.90
20915;DHT22;10617;52.032;5.298;2024-03-23T11:19:56;8.20;99.90
20915;DHT22;10617;52.032;5.298;2024-03-23T11:24:13;7.90;99.90
20915;DHT22;10617;52.032;5.298;2024-03-23T11:28:15;7.80;99.90
20915;DHT22;10617;52.032;5.298;2024-03-23T11:32:16;7.60;99.90
20915;DHT22;10617;52.032;5.298;2024-03-23T11:36:20;7.60;99.90
20915;DHT22;10617;52.032;5.298;2024-03-23T11:40:21;8.10;99.90
20915;DHT22;10617;52.032;5.298;2024-03-23T11:44:25;9.20;99.90
20915;DHT22;10617;52.032;5.298;2024-03-23T11:48:26;9.90;99.90
20915;DHT22;10617;52.032;5.298;2024-03-23T11:52:34;10.10;99.90
20915;DHT22;10617;52.032;5.298;2024-03-23T11:56:36;10.00;99.90
20915;DHT22;10617;52.032;5.298;2024-03-23T12:00:36;10.40;99.90
20915;DHT22;10617;52.032;5.298;2024-03-23T12:04:38;10.80;99.90
20915;DHT22;10617;52.032;5.298;2024-03-23T12:08:40;10.70;99.90
20915;DHT22;10617;52.032;5.298;2024-03-23T12:12:41;10.20;99.90
20915;DHT22;10617;52.032;5.298;2024-03-23T12:16:41;10.00;99.90
20915;DHT22;10617;52.032;5.298;2024-03-23T12:20:43;10.70;99.90
20915;DHT22;10617;52.032;5.298;2024-03-23T12:24:44;11.00;99.90
20915;DHT22;10617;52.032;5.298;2024-03-23T12:28:46;11.20;99.90
20915;DHT22;10617;52.032;5.298;2024-03-23T12:32:46;11.20;99.90
20915;DHT22;10617;52.032;5.298;2024-03-23T12:36:47;10.70;99.90
20915;DHT22;10617;52.032;5.298;2024-03-23T12:40:51;10.30;99.90
20915;DHT22;10617;52.032;5.298;2024-03-23T12:44:52;10.30;99.90
20915;DHT22;10617;52.032;5.298;2024-03-23T12:48:53;10.80;99.90
20915;DHT22;10617;52.032;5.298;2024-03-23T12:52:53;11.10;99.90
20915;DHT22;10617;52.032;5.298;2024-03-23T12:56:54;10.80;99.90
20915;DHT22;10617;52.032;5.298;2024-03-23T13:00:57;10.30;99.90
20915;DHT22;10617;52.032;5.298;2024-03-23T13:04:58;10.30;99.90
20915;DHT22;10617;52.032;5.298;2024-03-23T13:09:00;10.20;99.90
20915;DHT22;10617;52.032;5.298;2024-03-23T13:13:02;10.10;99.90
20915;DHT22;10617;52.032;5.298;2024-03-23T13:17:03;10.00;99.90
20915;DHT22;10617;52.032;5.298;2024-03-23T13:21:04;9.80;99.90
20915;DHT22;10617;52.032;5.298;2024-03-23T13:25:05;9.50;99.90
20915;DHT22;10617;52.032;5.298;2024-03-23T13:29:06;9.10;99.90
20915;DHT22;10617;52.032;5.298;2024-03-23T13:33:06;9.00;99.90
20915;DHT22;10617;52.032;5.298;2024-03-23T13:37:09;9.30;99.90
20915;DHT22;10617;52.032;5.298;2024-03-23T13:41:10;9.70;99.90
20915;DHT22;10617;52.032;5.298;2024-03-23T13:45:13;10.20;99.90
20915;DHT22;10617;52.032;5.298;2024-03-23T13:49:27;10.40;99.90
20915;DHT22;10617;52.032;5.298;2024-03-23T13:53:28;10.20;99.90
20915;DHT22;10617;52.032;5.298;2024-03-23T13:57:29;9.50;99.90
20915;DHT22;10617;52.032;5.298;2024-03-23T14:01:30;8.70;99.90
20915;DHT22;10617;52.032;5.298;2024-03-23T14:05:30;8.20;99.90
20915;DHT22;10617;52.032;5.298;2024-03-23T14:09:31;8.20;99.90
20915;DHT22;10617;52.032;5.298;2024-03-23T14:13:33;8.60;99.90
20915;DHT22;10617;52.032;5.298;2024-03-23T14:17:34;9.20;99.90
20915;DHT22;10617;52.032;5.298;2024-03-23T14:21:35;10.30;99.90
20915;DHT22;10617;52.032;5.298;2024-03-23T14:25:36;11.00;99.90
20915;DHT22;10617;52.032;5.298;2024-03-23T14:34:12;11.70;99.90
20915;DHT22;10617;52.032;5.298;2024-03-23T14:38:13;11.50;99.90
20915;DHT22;10617;52.032;5.298;2024-03-23T14:42:14;11.20;99.90
20915;DHT22;10617;52.032;5.298;2024-03-23T14:46:15;11.50;99.90
20915;DHT22;10617;52.032;5.298;2024-03-23T14:50:16;12.10;99.90
20915;DHT22;10617;52.032;5.298;2024-03-23T14:54:17;12.80;99.90
20915;DHT22;10617;52.032;5.298;2024-03-23T14:58:18;13.30;99.90
20915;DHT22;10617;52.032;5.298;2024-03-23T15:02:19;13.70;99.90
20915;DHT22;10617;52.032;5.298;2024-03-23T15:06:20;14.00;99.90
20915;DHT22;10617;52.032;5.298;2024-03-23T15:10:20;13.70;99.90
20915;DHT22;10617;52.032;5.298;2024-03-23T15:18:44;13.40;99.90
20915;DHT22;10617;52.032;5.298;2024-03-23T15:22:45;13.30;99.90
20915;DHT22;10617;52.032;5.298;2024-03-23T15:26:46;13.30;99.90
20915;DHT22;10617;52.032;5.298;2024-03-23T15:30:47;13.30;99.90
20915;DHT22;10617;52.032;5.298;2024-03-23T15:34:48;13.20;99.90
20915;DHT22;10617;52.032;5.298;2024-03-23T15:38:48;12.60;99.90
20915;DHT22;10617;52.032;5.298;2024-03-23T15:42:49;12.10;99.90
20915;DHT22;10617;52.032;5.298;2024-03-23T15:46:50;12.10;99.90
20915;DHT22;10617;52.032;5.298;2024-03-23T15:50:52;11.70;99.90
20915;DHT22;10617;52.032;5.298;2024-03-23T15:54:55;11.20;99.90
20915;DHT22;10617;52.032;5.298;2024-03-23T15:58:58;10.70;99.90
20915;DHT22;10617;52.032;5.298;2024-03-23T16:03:06;11.00;99.90
20915;DHT22;10617;52.032;5.298;2024-03-23T16:07:08;11.40;99.90
20915;DHT22;10617;52.032;5.298;2024-03-23T16:11:09;11.80;99.90
20915;DHT22;10617;52.032;5.298;2024-03-23T16:15:10;12.10;99.90
20915;DHT22;10617;52.032;5.298;2024-03-23T16:19:11;11.90;99.90
20915;DHT22;10617;52.032;5.298;2024-03-23T16:23:12;11.40;99.90
20915;DHT22;10617;52.032;5.298;2024-03-23T16:27:13;10.80;99.90
20915;DHT22;10617;52.032;5.298;2024-03-23T16:31:13;10.30;99.90
20915;DHT22;10617;52.032;5.298;2024-03-23T16:35:14;10.00;99.90
20915;DHT22;10617;52.032;5.298;2024-03-23T16:39:15;9.50;99.90
20915;DHT22;10617;52.032;5.298;2024-03-23T16:43:16;9.20;99.90
20915;DHT22;10617;52.032;5.298;2024-03-23T16:47:17;9.10;99.90
20915;DHT22;10617;52.032;5.298;2024-03-23T16:56:00;9.30;99.90
20915;DHT22;10617;52.032;5.298;2024-03-23T17:00:01;9.40;99.90
20915;DHT22;10617;52.032;5.298;2024-03-23T17:04:03;9.20;99.90
20915;DHT22;10617;52.032;5.298;2024-03-23T17:08:04;9.10;99.90
20915;DHT22;10617;52.032;5.298;2024-03-23T17:12:05;9.00;99.90
20915;DHT22;10617;52.032;5.298;2024-03-23T17:16:06;9.00;99.90
20915;DHT22;10617;52.032;5.298;2024-03-23T17:20:08;9.00;99.90
20915;DHT22;10617;52.032;5.298;2024-03-23T17:24:10;9.00;99.90
20915;DHT22;10617;52.032;5.298;2024-03-23T17:28:12;9.00;99.90
20915;DHT22;10617;52.032;5.298;2024-03-23T17:32:13;9.00;99.90
20915;DHT22;10617;52.032;5.298;2024-03-23T17:36:14;9.10;99.90
20915;DHT22;10617;52.032;5.298;2024-03-23T17:40:16;9.10;99.90
20915;DHT22;10617;52.032;5.298;2024-03-23T17:44:17;9.10;99.90
20915;DHT22;10617;52.032;5.298;2024-03-23T17:53:21;8.80;99.90
20915;DHT22;10617;52.032;5.298;2024-03-23T17:57:22;8.70;99.90
20915;DHT22;10617;52.032;5.298;2024-03-23T18:01:23;8.60;99.90
20915;DHT22;10617;52.032;5.298;2024-03-23T18:05:23;8.60;99.90
20915;DHT22;10617;52.032;5.298;2024-03-23T18:09:24;8.40;99.90
20915;DHT22;10617;52.032;5.298;2024-03-23T18:13:25;8.20;99.90
20915;DHT22;10617;52.032;5.298;2024-03-23T18:17:26;8.00;99.90
20915;DHT22;10617;52.032;5.298;2024-03-23T18:21:27;8.00;99.90
20915;DHT22;10617;52.032;5.298;2024-03-23T18:25:28;7.90;99.90
20915;DHT22;10617;52.032;5.298;2024-03-23T18:29:29;7.70;99.90
20915;DHT22;10617;52.032;5.298;2024-03-23T18:33:32;7.70;99.90
20915;DHT22;10617;52.032;5.298;2024-03-23T18:37:33;7.60;99.90
20915;DHT22;10617;52.032;5.298;2024-03-23T18:41:34;7.50;99.90
20915;DHT22;10617;52.032;5.298;2024-03-23T18:45:35;7.50;99.90
20915;DHT22;10617;52.032;5.298;2024-03-23T18:49:37;7.50;99.90
20915;DHT22;10617;52.032;5.298;2024-03-23T18:53:38;7.50;99.90
20915;DHT22;10617;52.032;5.298;2024-03-23T18:57:39;7.50;99.90
20915;DHT22;10617;52.032;5.298;2024-03-23T19:01:39;7.50;99.90
20915;DHT22;10617;52.032;5.298;2024-03-23T19:05:40;7.40;99.90
20915;DHT22;10617;52.032;5.298;2024-03-23T19:09:41;7.40;99.90
20915;DHT22;10617;52.032;5.298;2024-03-23T19:13:42;7.20;99.90
20915;DHT22;10617;52.032;5.298;2024-03-23T19:17:43;7.20;99.90
20915;DHT22;10617;52.032;5.298;2024-03-23T19:21:43;7.10;99.90
20915;DHT22;10617;52.032;5.298;2024-03-23T19:25:50;7.10;99.90
20915;DHT22;10617;52.032;5.298;2024-03-23T19:29:51;7.00;99.90
20915;DHT22;10617;52.032;5.298;2024-03-23T19:33:52;7.00;99.90
20915;DHT22;10617;52.032;5.298;2024-03-23T19:38:02;6.90;99.90
20915;DHT22;10617;52.032;5.298;2024-03-23T19:42:03;6.80;99.90
20915;DHT22;10617;52.032;5.298;2024-03-23T19:46:04;6.80;99.90
20915;DHT22;10617;52.032;5.298;2024-03-23T19:50:05;6.70;99.90
20915;DHT22;10617;52.032;5.298;2024-03-23T19:54:08;6.70;99.90
20915;DHT22;10617;52.032;5.298;2024-03-23T19:58:09;6.60;99.90
20915;DHT22;10617;52.032;5.298;2024-03-23T20:02:10;6.60;99.90
20915;DHT22;10617;52.032;5.298;2024-03-23T20:06:11;6.50;99.90
20915;DHT22;10617;52.032;5.298;2024-03-23T20:10:12;6.50;99.90
20915;DHT22;10617;52.032;5.298;2024-03-23T20:14:13;6.40;99.90
20915;DHT22;10617;52.032;5.298;2024-03-23T20:18:14;6.40;99.90
20915;DHT22;10617;52.032;5.298;2024-03-23T20:22:14;6.30;99.90
20915;DHT22;10617;52.032;5.298;2024-03-23T20:26:15;6.30;99.90
20915;DHT22;10617;52.032;5.298;2024-03-23T20:30:16;6.30;99.90
20915;DHT22;10617;52.032;5.298;2024-03-23T20:34:17;6.30;99.90
20915;DHT22;10617;52.032;5.298;2024-03-23T20:38:19;6.20;99.90
20915;DHT22;10617;52.032;5.298;2024-03-23T20:42:23;6.10;99.90
20915;DHT22;10617;52.032;5.298;2024-03-23T20:46:24;6.10;99.90
20915;DHT22;10617;52.032;5.298;2024-03-23T20:50:25;6.00;99.90
20915;DHT22;10617;52.032;5.298;2024-03-23T20:54:25;6.00;99.90
20915;DHT22;10617;52.032;5.298;2024-03-23T20:58:27;6.00;99.90
20915;DHT22;10617;52.032;5.298;2024-03-23T21:02:28;6.00;99.90
20915;DHT22;10617;52.032;5.298;2024-03-23T21:06:29;5.90;99.90
20915;DHT22;10617;52.032;5.298;2024-03-23T21:10:30;5.90;99.90
20915;DHT22;10617;52.032;5.298;2024-03-23T21:14:31;5.80;99.90
20915;DHT22;10617;52.032;5.298;2024-03-23T21:18:32;5.80;99.90
20915;DHT22;10617;52.032;5.298;2024-03-23T21:22:33;5.80;99.90
20915;DHT22;10617;52.032;5.298;2024-03-23T21:26:34;5.70;99.90
20915;DHT22;10617;52.032;5.298;2024-03-23T21:30:35;5.70;99.90
20915;DHT22;10617;52.032;5.298;2024-03-23T21:34:36;5.70;99.90
20915;DHT22;10617;52.032;5.298;2024-03-23T21:38:37;5.70;99.90
20915;DHT22;10617;52.032;5.298;2024-03-23T21:42:38;5.70;99.90
20915;DHT22;10617;52.032;5.298;2024-03-23T21:46:38;5.60;99.90
20915;DHT22;10617;52.032;5.298;2024-03-23T21:50:39;5.60;99.90
20915;DHT22;10617;52.032;5.298;2024-03-23T21:54:40;5.60;99.90
20915;DHT22;10617;52.032;5.298;2024-03-23T21:58:40;5.50;99.90
20915;DHT22;10617;52.032;5.298;2024-03-23T22:02:41;5.50;99.90
20915;DHT22;10617;52.032;5.298;2024-03-23T22:06:42;5.40;99.90
20915;DHT22;10617;52.032;5.298;2024-03-23T22:10:44;5.40;99.90
20915;DHT22;10617;52.032;5.298;2024-03-23T22:14:46;5.40;99.90
20915;DHT22;10617;52.032;5.298;2024-03-23T22:18:47;5.40;99.90
20915;DHT22;10617;52.032;5.298;2024-03-23T22:22:48;5.50;99.90
20915;DHT22;10617;52.032;5.298;2024-03-23T22:26:49;5.50;99.90
20915;DHT22;10617;52.032;5.298;2024-03-23T22:31:03;5.50;99.90
20915;DHT22;10617;52.032;5.298;2024-03-23T22:35:04;5.50;99.90
20915;DHT22;10617;52.032;5.298;2024-03-23T22:39:05;5.60;99.90
20915;DHT22;10617;52.032;5.298;2024-03-23T22:43:06;5.60;99.90
20915;DHT22;10617;52.032;5.298;2024-03-23T22:47:07;5.50;99.90
20915;DHT22;10617;52.032;5.298;2024-03-23T22:51:08;5.50;99.90
20915;DHT22;10617;52.032;5.298;2024-03-23T22:55:09;5.50;99.90
20915;DHT22;10617;52.032;5.298;2024-03-23T22:59:09;5.40;99.90
20915;DHT22;10617;52.032;5.298;2024-03-23T23:03:11;5.40;99.90
20915;DHT22;10617;52.032;5.298;2024-03-23T23:07:12;5.40;99.90
20915;DHT22;10617;52.032;5.298;2024-03-23T23:11:13;5.40;99.90
20915;DHT22;10617;52.032;5.298;2024-03-23T23:15:14;5.40;99.90
20915;DHT22;10617;52.032;5.298;2024-03-23T23:19:15;5.50;99.90
20915;DHT22;10617;52.032;5.298;2024-03-23T23:23:16;5.40;99.90
20915;DHT22;10617;52.032;5.298;2024-03-23T23:27:16;5.50;99.90
20915;DHT22;10617;52.032;5.298;2024-03-23T23:31:17;5.50;99.90
20915;DHT22;10617;52.032;5.298;2024-03-23T23:35:18;5.50;99.90
20915;DHT22;10617;52.032;5.298;2024-03-23T23:39:19;5.50;99.90
20915;DHT22;10617;52.032;5.298;2024-03-23T23:43:20;5.50;99.90
20915;DHT22;10617;52.032;5.298;2024-03-23T23:47:20;5.40;99.90
20915;DHT22;10617;52.032;5.298;2024-03-23T23:51:21;5.40;99.90
20915;DHT22;10617;52.032;5.298;2024-03-23T23:55:22;5.40;99.90
20915;DHT22;10617;52.032;5.298;2024-03-23T23:59:23;5.40;99.90
